Time;durP1;ratioP1;P1;durP2;ratioP2;P2;SDS_P1;SDS_P2;PMS_P1;PMS_P2;Temp;Humidity;BMP_temperature;BMP_pressure;BME280_temperature;BME280_humidity;BME280_pressure;Samples;Min_cycle;Max_cycle;Signal;HPM_P1;HPM_P2
2022/03/14 00:01:48;;;;;;;19.23;13.00;;;;;;;7.96;64.35;98150.09;4177560;28;20667;-84
2022/03/14 00:03:55;;;;;;;19.47;14.03;;;;;;;7.91;63.81;98152.94;4179089;28;20657;-84
2022/03/14 00:05:58;;;;;;;19.67;14.03;;;;;;;7.88;63.84;98154.84;4196589;28;20639;-84
2022/03/14 00:08:01;;;;;;;22.37;13.73;;;;;;;7.82;64.50;98157.78;4207742;28;20640;-84
2022/03/14 00:10:05;;;;;;;21.97;15.03;;;;;;;7.81;63.32;98153.53;4165897;28;20637;-84
2022/03/14 00:12:10;;;;;;;21.43;14.33;;;;;;;7.78;64.64;98158.91;4169305;28;20684;-85
2022/03/14 00:14:13;;;;;;;20.63;14.87;;;;;;;7.75;64.90;98152.13;4189872;28;20636;-84
2022/03/14 00:16:25;;;;;;;21.57;15.30;;;;;;;7.73;64.67;98161.75;4211574;28;21307;-84
2022/03/14 00:18:32;;;;;;;24.70;15.80;;;;;;;7.73;64.27;98164.34;4173689;28;20627;-84
2022/03/14 00:20:36;;;;;;;21.10;15.10;;;;;;;7.73;65.37;98160.94;4194973;28;22147;-84
2022/03/14 00:22:40;;;;;;;20.40;15.07;;;;;;;7.70;64.98;98179.28;4194040;28;20749;-84
2022/03/14 00:24:43;;;;;;;19.77;14.47;;;;;;;7.69;65.51;98186.19;4194074;28;20703;-84
2022/03/14 00:26:47;;;;;;;22.30;15.27;;;;;;;7.69;64.81;98201.78;4194510;28;20631;-84
2022/03/14 00:28:51;;;;;;;19.27;14.23;;;;;;;7.69;64.95;98206.13;4193370;28;20676;-84
2022/03/14 00:30:54;;;;;;;19.67;15.00;;;;;;;7.66;64.27;98212.31;4189641;28;21006;-84
2022/03/14 00:32:57;;;;;;;18.03;14.07;;;;;;;7.65;63.87;98220.19;4169671;28;20225;-83
2022/03/14 00:35:01;;;;;;;19.75;12.75;;;;;;;7.66;63.68;98227.06;4199328;28;20692;-84
2022/03/14 00:37:05;;;;;;;19.90;14.30;;;;;;;7.67;64.27;98228.75;4181600;28;20199;-84
2022/03/14 00:39:08;;;;;;;19.47;14.67;;;;;;;7.64;63.49;98232.34;4196583;28;20623;-84
2022/03/14 00:41:12;;;;;;;22.30;15.37;;;;;;;7.63;64.31;98242.81;4177851;28;20632;-85
2022/03/14 00:43:16;;;;;;;19.57;14.63;;;;;;;7.58;66.12;98252.59;4191033;28;20711;-84
2022/03/14 00:45:21;;;;;;;21.30;15.48;;;;;;;7.56;65.79;98259.59;4190348;28;21068;-84
2022/03/14 00:47:24;;;;;;;22.03;15.07;;;;;;;7.52;66.77;98261.53;4192515;28;20206;-84
2022/03/14 00:49:27;;;;;;;23.13;14.60;;;;;;;7.48;67.15;98263.56;4175378;28;21050;-84
2022/03/14 00:51:31;;;;;;;23.60;15.63;;;;;;;7.44;66.76;98265.44;4189825;28;20235;-84
2022/03/14 00:53:34;;;;;;;28.23;16.00;;;;;;;7.40;67.19;98276.09;4178120;28;20653;-84
2022/03/14 00:55:38;;;;;;;21.95;15.60;;;;;;;7.41;67.19;98276.00;4193773;28;21236;-84
2022/03/14 00:57:41;;;;;;;25.13;15.97;;;;;;;7.44;66.63;98288.81;4192983;28;20204;-85
2022/03/14 00:59:44;;;;;;;22.90;15.63;;;;;;;7.44;67.02;98294.00;4192290;28;20683;-84
2022/03/14 01:01:49;;;;;;;23.60;15.53;;;;;;;7.45;66.37;98289.66;4181970;28;21266;-84
2022/03/14 01:03:58;;;;;;;22.00;14.85;;;;;;;7.45;66.78;98308.66;4188652;28;20882;-84
2022/03/14 01:06:01;;;;;;;20.13;14.30;;;;;;;7.48;66.58;98313.69;4191189;28;20203;-83
2022/03/14 01:08:06;;;;;;;21.83;14.15;;;;;;;7.50;66.65;98314.44;4192483;28;20729;-84
2022/03/14 01:10:09;;;;;;;16.83;13.83;;;;;;;7.52;66.64;98321.22;4177666;28;20219;-85
2022/03/14 01:12:13;;;;;;;22.77;14.53;;;;;;;7.56;65.27;98314.09;4196594;28;20625;-84
2022/03/14 01:14:16;;;;;;;20.23;14.87;;;;;;;7.53;65.82;98319.44;4177747;28;20639;-84
2022/03/14 01:16:19;;;;;;;18.70;14.10;;;;;;;7.51;66.44;98329.09;4205178;28;20631;-84
2022/03/14 01:18:25;;;;;;;22.37;14.90;;;;;;;7.50;65.79;98345.56;4176142;28;20666;-84
2022/03/14 01:20:28;;;;;;;18.97;13.30;;;;;;;7.50;66.72;98358.53;4193928;28;20656;-85
2022/03/14 01:22:31;;;;;;;18.10;13.20;;;;;;;7.54;67.09;98370.44;4196458;28;20701;-84
2022/03/14 01:24:38;;;;;;;18.80;13.38;;;;;;;7.55;66.81;98375.56;4195287;28;20657;-84
2022/03/14 01:26:42;;;;;;;20.10;14.07;;;;;;;7.53;67.59;98384.31;4197913;28;20610;-84
2022/03/14 01:28:45;;;;;;;19.43;12.80;;;;;;;7.51;66.87;98397.38;4198415;28;20627;-84
2022/03/14 01:30:48;;;;;;;17.98;12.90;;;;;;;7.52;66.33;98404.25;4197938;28;20648;-84
2022/03/14 01:32:51;;;;;;;20.92;13.65;;;;;;;7.53;66.03;98405.09;4196229;28;20212;-83
2022/03/14 01:34:58;;;;;;;18.57;13.20;;;;;;;7.51;65.54;98405.16;4195578;28;20198;-84
2022/03/14 01:37:02;;;;;;;18.95;13.95;;;;;;;7.54;65.45;98407.59;4194847;28;20643;-84
2022/03/14 01:39:05;;;;;;;19.23;13.30;;;;;;;7.55;65.42;98426.63;4196087;28;20217;-84
2022/03/14 01:41:10;;;;;;;16.50;12.95;;;;;;;7.51;65.70;98425.09;4196896;28;20660;-84
2022/03/14 01:43:14;;;;;;;18.07;13.33;;;;;;;7.51;66.15;98436.28;4192347;28;20214;-84
2022/03/14 01:45:18;;;;;;;15.57;12.43;;;;;;;7.51;65.91;98440.66;4196748;28;20658;-84
2022/03/14 01:47:21;;;;;;;19.52;13.70;;;;;;;7.52;65.88;98452.72;4192202;28;20998;-84
2022/03/14 01:49:24;;;;;;;23.08;14.27;;;;;;;7.50;66.14;98452.81;4195451;28;20232;-84
2022/03/14 01:51:29;;;;;;;19.55;13.75;;;;;;;7.49;66.93;98468.44;4195129;28;20745;-84
2022/03/14 01:53:33;;;;;;;18.52;13.27;;;;;;;7.48;66.75;98474.53;4182098;28;20307;-84
2022/03/14 01:55:36;;;;;;;18.63;13.32;;;;;;;7.53;66.54;98477.75;4198016;28;20738;-84
2022/03/14 01:57:39;;;;;;;19.10;13.37;;;;;;;7.60;66.79;98481.72;4178437;28;20261;-84
2022/03/14 01:59:42;;;;;;;19.63;13.47;;;;;;;7.66;65.48;98487.44;4194407;28;20640;-84
2022/03/14 02:01:51;;;;;;;17.55;13.60;;;;;;;7.75;66.62;98496.53;4177868;28;21221;-84
2022/03/14 02:03:54;;;;;;;20.38;13.77;;;;;;;7.74;65.12;98500.88;4198657;28;20937;-85
2022/03/14 02:05:58;;;;;;;17.70;12.43;;;;;;;7.68;66.03;98501.19;4196730;28;20212;-84
2022/03/14 02:08:02;;;;;;;21.90;13.00;;;;;;;7.70;66.58;98509.72;4166112;28;20633;-84
2022/03/14 02:10:06;;;;;;;19.00;13.30;;;;;;;7.70;66.02;98514.09;4194285;28;20730;-84
2022/03/14 02:12:10;;;;;;;19.10;13.83;;;;;;;7.70;65.64;98521.88;4193487;28;21127;-84
2022/03/14 02:14:13;;;;;;;18.25;12.80;;;;;;;7.66;66.05;98528.13;4178867;28;20690;-84
2022/03/14 02:16:16;;;;;;;20.63;13.57;;;;;;;7.69;65.26;98535.75;4212958;28;20201;-84
2022/03/14 02:18:20;;;;;;;18.60;13.50;;;;;;;7.72;65.36;98533.84;4199007;28;21231;-84
2022/03/14 02:20:24;;;;;;;20.10;13.00;;;;;;;7.82;66.52;98539.41;4196303;28;20665;-84
2022/03/14 02:22:27;;;;;;;20.83;14.03;;;;;;;7.89;65.75;98543.38;4175790;28;20662;-85
2022/03/14 02:24:30;;;;;;;18.47;13.27;;;;;;;7.96;66.59;98554.22;4176574;28;20714;-84
2022/03/14 02:26:39;;;;;;;24.03;14.87;;;;;;;8.04;67.83;98561.63;4176343;28;20644;-84
2022/03/14 02:28:43;;;;;;;19.70;13.83;;;;;;;8.13;68.82;98567.25;4192325;28;21011;-85
2022/03/14 02:30:46;;;;;;;21.60;14.50;;;;;;;8.22;68.83;98564.13;4193314;28;20647;-85
2022/03/14 02:32:50;;;;;;;20.33;13.70;;;;;;;8.36;70.56;98576.41;4189888;28;20627;-84
2022/03/14 02:34:53;;;;;;;15.30;11.40;;;;;;;8.47;75.88;98577.56;4191639;28;20681;-84
2022/03/14 02:36:57;;;;;;;15.50;11.13;;;;;;;8.61;75.33;98588.06;4194708;28;20682;-85
2022/03/14 02:39:00;;;;;;;19.40;11.87;;;;;;;8.73;77.44;98595.22;4199554;28;20638;-84
2022/03/14 02:41:03;;;;;;;13.43;10.30;;;;;;;8.81;78.18;98598.25;4189738;28;20638;-84
2022/03/14 02:43:07;;;;;;;15.87;10.33;;;;;;;8.92;77.35;98608.00;4195442;28;20632;-85
2022/03/14 02:45:10;;;;;;;11.90;8.80;;;;;;;9.01;77.49;98604.91;4190390;28;20650;-84
2022/03/14 02:47:13;;;;;;;10.40;7.23;;;;;;;9.13;80.30;98612.03;4194739;28;20651;-84
2022/03/14 02:49:16;;;;;;;11.47;7.57;;;;;;;9.22;80.68;98613.31;4196344;28;21065;-84
2022/03/14 02:51:20;;;;;;;8.80;7.07;;;;;;;9.31;79.85;98623.22;4193968;28;20983;-85
2022/03/14 02:53:25;;;;;;;9.90;7.20;;;;;;;9.39;80.00;98627.06;4176006;28;20660;-84
2022/03/14 02:55:28;;;;;;;8.57;6.70;;;;;;;9.46;82.11;98633.63;4191987;28;20655;-85
2022/03/14 02:57:31;;;;;;;5.87;4.27;;;;;;;9.52;82.40;98641.94;4193774;28;21249;-84
2022/03/14 02:59:34;;;;;;;4.53;4.03;;;;;;;9.59;82.89;98638.06;4182765;28;21140;-84
2022/03/14 03:01:38;;;;;;;5.63;3.20;;;;;;;9.65;85.75;98645.56;4198717;28;20638;-84
2022/03/14 03:03:41;;;;;;;4.67;3.30;;;;;;;9.69;86.20;98649.63;4178590;28;20638;-85
2022/03/14 03:05:44;;;;;;;5.17;3.80;;;;;;;9.73;85.29;98647.72;4175351;28;20658;-84
2022/03/14 03:07:48;;;;;;;3.70;2.87;;;;;;;9.75;86.94;98648.47;4199341;28;20642;-84
2022/03/14 03:09:53;;;;;;;5.20;2.53;;;;;;;9.78;86.72;98645.69;4194971;28;20646;-84
2022/03/14 03:11:56;;;;;;;3.40;2.90;;;;;;;9.81;86.92;98651.56;4191041;28;20638;-84
2022/03/14 03:14:01;;;;;;;3.83;2.50;;;;;;;9.89;87.25;98649.34;4190813;28;20651;-85
2022/03/14 03:16:07;;;;;;;3.87;2.60;;;;;;;9.92;87.44;98646.56;4178805;28;20644;-84
2022/03/14 03:18:10;;;;;;;3.30;2.63;;;;;;;9.93;87.86;98653.47;4194515;28;21062;-85
2022/03/14 03:20:14;;;;;;;3.30;2.20;;;;;;;9.90;88.01;98658.84;4199426;28;21249;-85
2022/03/14 03:22:17;;;;;;;2.93;2.50;;;;;;;9.95;87.67;98656.84;4188109;28;20659;-84
2022/03/14 03:24:24;;;;;;;3.20;2.40;;;;;;;9.93;88.49;98663.91;4193395;28;20697;-84
2022/03/14 03:26:28;;;;;;;4.10;3.07;;;;;;;9.94;88.38;98666.44;4185176;28;20662;-84
2022/03/14 03:28:35;;;;;;;3.73;2.50;;;;;;;9.95;88.54;98668.13;4198430;28;21815;-85
2022/03/14 03:30:38;;;;;;;3.40;2.50;;;;;;;9.93;89.07;98680.38;4192839;28;20649;-84
2022/03/14 03:32:42;;;;;;;3.77;2.83;;;;;;;9.90;90.55;98690.13;4183101;28;20643;-85
2022/03/14 03:34:45;;;;;;;3.53;2.80;;;;;;;9.89;90.34;98688.44;4192185;28;20627;-84
2022/03/14 03:36:48;;;;;;;3.67;2.80;;;;;;;9.87;90.70;98690.28;4197999;28;20643;-84
2022/03/14 03:38:51;;;;;;;5.00;3.20;;;;;;;9.86;91.19;98699.03;4190672;28;21246;-85
2022/03/14 03:40:54;;;;;;;5.83;2.90;;;;;;;9.89;91.10;98704.06;4197710;28;21243;-84
2022/03/14 03:42:58;;;;;;;3.87;2.80;;;;;;;9.88;91.24;98711.03;4186471;28;20625;-84
2022/03/14 03:45:01;;;;;;;4.50;2.87;;;;;;;9.90;91.22;98711.78;4210143;28;20631;-85
2022/03/14 03:47:05;;;;;;;5.90;3.00;;;;;;;9.92;91.48;98716.91;4193600;28;21205;-85
2022/03/14 03:49:08;;;;;;;3.17;2.70;;;;;;;9.91;91.91;98715.25;4194696;28;21226;-85
2022/03/14 03:51:12;;;;;;;6.57;3.33;;;;;;;9.93;92.06;98722.06;4177591;28;20636;-84
2022/03/14 03:53:15;;;;;;;3.87;2.90;;;;;;;9.94;92.60;98723.75;4181758;28;20645;-85
2022/03/14 03:55:18;;;;;;;4.63;3.10;;;;;;;9.95;91.72;98727.19;4207063;28;20671;-85
2022/03/14 03:57:21;;;;;;;4.17;2.73;;;;;;;9.95;92.50;98733.28;4192391;28;20642;-84
2022/03/14 03:59:26;;;;;;;3.10;2.50;;;;;;;9.93;92.21;98742.91;4187931;28;20647;-84
2022/03/14 04:01:30;;;;;;;4.10;3.03;;;;;;;9.96;92.16;98742.75;4208609;28;20637;-84
2022/03/14 04:03:35;;;;;;;4.57;3.03;;;;;;;9.97;92.59;98749.66;4173145;28;21210;-84
2022/03/14 04:05:39;;;;;;;3.57;2.50;;;;;;;9.95;92.52;98748.03;4190417;28;20650;-84
2022/03/14 04:07:42;;;;;;;4.90;2.60;;;;;;;9.92;93.52;98756.84;4170609;28;20650;-84
2022/03/14 04:09:45;;;;;;;4.23;2.90;;;;;;;9.92;93.73;98750.78;4178971;28;20651;-84
2022/03/14 04:11:49;;;;;;;3.57;2.97;;;;;;;9.91;93.24;98762.97;4189861;28;20681;-84
2022/03/14 04:13:53;;;;;;;5.13;2.67;;;;;;;9.92;93.31;98764.66;4193525;28;20664;-84
2022/03/14 04:15:58;;;;;;;7.17;3.10;;;;;;;9.90;93.66;98763.06;4176043;28;20643;-84
2022/03/14 04:18:02;;;;;;;4.70;2.60;;;;;;;9.85;93.70;98758.09;4195261;28;20649;-85
2022/03/14 04:20:07;;;;;;;4.10;3.17;;;;;;;9.86;94.18;98761.53;4195482;28;20730;-84
2022/03/14 04:22:10;;;;;;;4.97;2.97;;;;;;;9.85;94.59;98768.53;4176297;28;21273;-85
2022/03/14 04:24:13;;;;;;;4.53;2.33;;;;;;;9.85;94.03;98776.34;4194828;28;20630;-84
2022/03/14 04:26:16;;;;;;;3.37;2.20;;;;;;;9.86;94.38;98775.44;4196588;28;20667;-84
2022/03/14 04:28:20;;;;;;;3.73;2.23;;;;;;;9.85;94.41;98771.13;4190644;28;20755;-85
2022/03/14 04:30:23;;;;;;;3.43;2.40;;;;;;;9.84;94.03;98773.81;4179473;28;20643;-85
2022/03/14 04:32:28;;;;;;;2.90;2.30;;;;;;;9.85;94.19;98775.50;4177573;28;20628;-85
2022/03/14 04:34:31;;;;;;;6.13;2.40;;;;;;;9.88;93.93;98773.56;4193257;28;20622;-84
2022/03/14 04:36:35;;;;;;;2.97;2.50;;;;;;;9.88;94.22;98770.97;4189183;28;21202;-84
2022/03/14 04:38:40;;;;;;;3.63;2.67;;;;;;;9.90;94.28;98773.47;4214325;28;20661;-84
2022/03/14 04:40:43;;;;;;;5.33;2.97;;;;;;;9.93;94.03;98783.75;4187580;28;21153;-84
2022/03/14 04:42:47;;;;;;;3.10;2.40;;;;;;;9.95;94.35;98792.34;4188362;28;20626;-85
2022/03/14 04:44:51;;;;;;;2.70;2.37;;;;;;;9.96;94.52;98789.66;4173233;28;20636;-84
2022/03/14 04:46:55;;;;;;;3.10;2.37;;;;;;;9.94;94.49;98791.50;4194227;28;21001;-85
2022/03/14 04:48:59;;;;;;;4.40;2.80;;;;;;;9.94;94.64;98793.28;4195945;28;20661;-84
2022/03/14 04:51:02;;;;;;;3.07;2.60;;;;;;;9.95;94.32;98802.75;4185611;28;20975;-85
2022/03/14 04:53:06;;;;;;;3.00;2.57;;;;;;;9.97;94.37;98803.53;4191588;28;20627;-84
2022/03/14 04:55:10;;;;;;;4.63;2.87;;;;;;;9.96;94.06;98805.28;4193725;28;21027;-85
2022/03/14 04:57:13;;;;;;;3.43;2.57;;;;;;;9.98;94.66;98803.47;4193459;28;20678;-85
2022/03/14 04:59:16;;;;;;;3.00;2.53;;;;;;;9.98;94.34;98818.22;4179545;28;20704;-85
2022/03/14 05:01:21;;;;;;;4.33;3.57;;;;;;;9.99;94.62;98827.72;4188852;28;20652;-85
2022/03/14 05:03:24;;;;;;;5.33;2.90;;;;;;;9.99;94.63;98845.97;4194994;28;21008;-85
2022/03/14 05:05:29;;;;;;;3.53;2.73;;;;;;;9.98;94.63;98847.75;4179008;28;20652;-85
2022/03/14 05:07:32;;;;;;;3.73;3.00;;;;;;;9.98;94.62;98846.88;4193420;28;20654;-84
2022/03/14 05:09:35;;;;;;;3.60;2.73;;;;;;;9.97;94.18;98842.63;4199096;28;20644;-85
2022/03/14 05:11:40;;;;;;;4.83;3.40;;;;;;;9.96;94.46;98852.19;4175518;28;20718;-84
2022/03/14 05:13:43;;;;;;;4.10;3.27;;;;;;;9.97;94.21;98859.09;4179022;28;20725;-84
2022/03/14 05:15:46;;;;;;;4.50;3.10;;;;;;;9.96;94.50;98852.19;4197627;28;20632;-84
2022/03/14 05:17:50;;;;;;;4.27;3.27;;;;;;;9.97;94.49;98853.88;4184861;28;20674;-85
2022/03/14 05:19:53;;;;;;;4.67;3.53;;;;;;;9.98;94.36;98849.50;4195876;28;20635;-85
2022/03/14 05:21:57;;;;;;;4.70;3.47;;;;;;;9.97;94.56;98848.66;4201234;28;20708;-84
2022/03/14 05:24:01;;;;;;;4.33;3.40;;;;;;;9.95;94.63;98849.66;4179922;28;20628;-84
2022/03/14 05:26:04;;;;;;;4.23;3.73;;;;;;;9.97;94.46;98851.28;4195427;28;20623;-85
2022/03/14 05:28:07;;;;;;;5.57;3.70;;;;;;;9.96;94.27;98852.19;4198423;28;20645;-85
2022/03/14 05:30:10;;;;;;;4.80;3.73;;;;;;;9.96;94.96;98852.19;4192905;28;20655;-84
2022/03/14 05:32:13;;;;;;;4.00;3.53;;;;;;;9.96;94.87;98857.38;4197584;28;20684;-84
2022/03/14 05:34:16;;;;;;;3.83;3.37;;;;;;;9.95;94.61;98860.09;4195877;28;20636;-85
2022/03/14 05:36:22;;;;;;;4.80;3.30;;;;;;;9.93;94.06;98869.72;4193675;28;20628;-84
2022/03/14 05:38:28;;;;;;;4.30;3.40;;;;;;;9.90;95.03;98875.91;4192584;28;20639;-83
2022/03/14 05:40:31;;;;;;;4.43;3.43;;;;;;;9.89;94.74;98884.69;4179191;28;20675;-84
2022/03/14 05:42:34;;;;;;;5.93;3.70;;;;;;;9.90;94.67;98888.13;4178752;28;21067;-84
2022/03/14 05:44:37;;;;;;;3.77;2.97;;;;;;;9.91;94.66;98895.03;4193084;28;20647;-84
2022/03/14 05:46:40;;;;;;;4.23;3.50;;;;;;;9.91;94.79;98900.22;4181153;28;20659;-84
2022/03/14 05:48:47;;;;;;;4.50;3.60;;;;;;;9.90;94.38;98909.78;4196934;28;21210;-85
2022/03/14 05:50:50;;;;;;;4.97;4.00;;;;;;;9.91;94.45;98911.50;4193053;28;20615;-85
2022/03/14 05:52:54;;;;;;;4.20;3.60;;;;;;;9.90;94.68;98908.97;4194476;28;21038;-84
2022/03/14 05:54:59;;;;;;;4.60;3.53;;;;;;;9.90;94.66;98917.59;4194444;28;20643;-85
2022/03/14 05:57:02;;;;;;;4.87;3.77;;;;;;;9.89;94.39;98922.91;4201121;28;20623;-84
2022/03/14 05:59:07;;;;;;;4.37;3.97;;;;;;;9.87;94.36;98922.16;4191480;28;20631;-84
2022/03/14 06:01:10;;;;;;;5.10;4.20;;;;;;;9.88;95.27;98916.84;4188547;28;20627;-84
2022/03/14 06:03:14;;;;;;;5.70;3.97;;;;;;;9.88;94.58;98932.50;4176605;28;20628;-85
2022/03/14 06:05:18;;;;;;;5.50;4.30;;;;;;;9.88;94.72;98924.66;4192741;28;20722;-84
2022/03/14 06:07:22;;;;;;;6.20;4.20;;;;;;;9.87;94.61;98938.59;4193690;28;20682;-84
2022/03/14 06:09:25;;;;;;;4.47;4.07;;;;;;;9.89;95.01;98949.81;4178331;28;20710;-85
2022/03/14 06:11:38;;;;;;;4.87;3.90;;;;;;;9.89;95.59;98952.41;4196373;28;20605;-84
2022/03/14 06:13:42;;;;;;;5.90;4.23;;;;;;;9.89;95.59;98957.63;4192720;28;20626;-85
2022/03/14 06:15:47;;;;;;;5.07;4.57;;;;;;;9.89;94.93;98960.25;4172288;28;20712;-84
2022/03/14 06:17:50;;;;;;;5.10;4.50;;;;;;;9.92;95.02;98961.81;4193933;28;20627;-84
2022/03/14 06:19:54;;;;;;;6.23;4.60;;;;;;;9.93;94.82;98967.00;4176630;28;21217;-84
2022/03/14 06:21:57;;;;;;;6.63;4.20;;;;;;;9.93;94.86;98966.13;4178770;28;21205;-85
2022/03/14 06:24:00;;;;;;;5.90;4.60;;;;;;;9.92;94.64;98969.63;4192852;28;20642;-86
2022/03/14 06:26:03;;;;;;;5.23;4.47;;;;;;;9.93;95.21;98977.41;4195716;28;20638;-86
2022/03/14 06:28:08;;;;;;;5.00;4.50;;;;;;;9.96;95.10;98985.06;4213747;28;21079;-86
2022/03/14 06:30:13;;;;;;;5.27;4.47;;;;;;;9.97;95.17;98981.56;4181606;28;20644;-86
2022/03/14 06:32:16;;;;;;;7.03;4.80;;;;;;;9.98;95.15;98987.59;4197579;28;20639;-86
2022/03/14 06:34:20;;;;;;;4.80;4.30;;;;;;;9.99;94.56;98984.91;4176975;28;21059;-86
2022/03/14 06:36:23;;;;;;;7.93;4.33;;;;;;;10.00;94.15;98984.00;4197727;28;21064;-86
2022/03/14 06:38:26;;;;;;;5.53;4.63;;;;;;;10.03;93.98;98989.06;4181432;28;20632;-85
2022/03/14 06:40:29;;;;;;;5.50;4.90;;;;;;;10.06;94.98;98983.69;4177994;28;20637;-85
2022/03/14 06:42:32;;;;;;;7.30;5.60;;;;;;;10.10;95.23;98985.22;4190967;28;21302;-85
2022/03/14 06:44:38;;;;;;;6.13;4.80;;;;;;;10.14;94.65;98994.53;4175544;28;20648;-84
2022/03/14 06:46:45;;;;;;;5.73;4.40;;;;;;;10.15;94.68;98998.84;4177649;28;21030;-87
2022/03/14 06:48:49;;;;;;;5.63;5.10;;;;;;;10.16;94.26;99000.50;4195960;28;20638;-87
2022/03/14 06:50:52;;;;;;;7.23;5.20;;;;;;;10.17;94.60;99009.19;4172869;28;20632;-89
2022/03/14 06:52:55;;;;;;;6.93;5.57;;;;;;;10.16;95.26;99010.94;4177374;28;20636;-87
2022/03/14 06:54:58;;;;;;;10.10;7.93;;;;;;;10.17;94.47;99012.63;4187200;28;20626;-86
2022/03/14 06:57:01;;;;;;;6.30;4.70;;;;;;;10.18;94.90;99013.47;4182799;28;20655;-87
2022/03/14 06:59:04;;;;;;;7.83;5.83;;;;;;;10.18;94.41;99016.94;4208828;28;20638;-84
2022/03/14 07:01:09;;;;;;;6.80;5.30;;;;;;;10.24;94.62;99024.44;4190628;28;20646;-84
2022/03/14 07:03:14;;;;;;;5.83;4.90;;;;;;;10.30;94.86;99026.72;4190060;28;21299;-87
2022/03/14 07:05:20;;;;;;;5.67;4.90;;;;;;;10.43;94.43;99019.91;4192657;28;20678;-85
2022/03/14 07:07:23;;;;;;;5.80;5.00;;;;;;;10.52;93.96;99022.03;4197634;28;20715;-85
2022/03/14 07:09:26;;;;;;;7.27;4.90;;;;;;;10.58;93.46;99024.31;4179238;28;20711;-86
2022/03/14 07:11:30;;;;;;;7.10;4.93;;;;;;;10.67;94.33;99029.88;4192535;28;20639;-85
2022/03/14 07:13:34;;;;;;;7.10;5.13;;;;;;;10.80;94.36;99030.09;4191287;28;20685;-86
2022/03/14 07:15:37;;;;;;;7.53;5.40;;;;;;;10.86;93.60;99041.84;4178453;28;21015;-86
2022/03/14 07:17:41;;;;;;;6.80;5.23;;;;;;;10.95;93.64;99041.34;4211429;28;20711;-86
2022/03/14 07:19:46;;;;;;;6.77;5.77;;;;;;;11.05;93.41;99042.56;4184310;28;20628;-86
2022/03/14 07:21:49;;;;;;;7.77;6.23;;;;;;;11.06;94.15;99046.81;4192954;28;20696;-85
2022/03/14 07:23:53;;;;;;;6.43;5.67;;;;;;;11.05;93.35;99055.59;4178958;28;20632;-85
2022/03/14 07:25:56;;;;;;;5.97;5.37;;;;;;;11.02;92.75;99053.16;4191635;28;20633;-85
2022/03/14 07:28:01;;;;;;;8.07;5.83;;;;;;;10.99;92.60;99063.78;4188955;28;21425;-85
2022/03/14 07:30:04;;;;;;;6.70;6.00;;;;;;;10.96;92.91;99061.31;4192258;28;20663;-85
2022/03/14 07:32:08;;;;;;;6.27;5.27;;;;;;;10.95;92.32;99056.19;4178747;28;21034;-85
2022/03/14 07:34:12;;;;;;;6.30;5.70;;;;;;;10.95;93.41;99061.41;4188595;28;20689;-86
2022/03/14 07:36:16;;;;;;;7.07;5.60;;;;;;;10.96;92.20;99063.94;4188623;28;20642;-86
2022/03/14 07:38:19;;;;;;;6.60;5.63;;;;;;;10.98;92.60;99062.06;4201277;28;20672;-86
2022/03/14 07:40:23;;;;;;;6.37;5.60;;;;;;;11.23;92.38;99067.66;4207375;28;20639;-86
2022/03/14 07:42:28;;;;;;;7.37;6.30;;;;;;;11.89;92.41;99080.38;4191115;28;20685;-86
2022/03/14 07:44:31;;;;;;;9.23;5.60;;;;;;;12.22;89.42;99084.47;4186939;28;20644;-85
2022/03/14 07:46:34;;;;;;;6.40;5.40;;;;;;;12.16;88.86;99087.44;4193806;28;21227;-85
2022/03/14 07:48:38;;;;;;;8.60;5.00;;;;;;;12.04;89.10;99098.66;4195942;28;20656;-84
2022/03/14 07:50:43;;;;;;;6.50;4.30;;;;;;;11.81;88.02;99095.66;4192298;28;20635;-84
2022/03/14 07:52:47;;;;;;;7.57;4.10;;;;;;;12.17;90.00;99106.63;4178014;28;20625;-84
2022/03/14 07:54:50;;;;;;;7.30;4.47;;;;;;;12.62;86.64;99104.72;4210154;28;20636;-86
2022/03/14 07:56:53;;;;;;;6.30;4.00;;;;;;;13.08;88.19;99123.66;4190544;28;20628;-85
2022/03/14 07:58:56;;;;;;;3.80;3.37;;;;;;;13.29;84.67;99124.91;4189135;28;20645;-86
2022/03/14 08:00:59;;;;;;;6.67;4.10;;;;;;;13.18;83.37;99127.38;4175268;28;21243;-86
2022/03/14 08:03:03;;;;;;;4.93;3.27;;;;;;;13.15;84.33;99132.78;4173714;28;20629;-86
2022/03/14 08:05:08;;;;;;;4.80;3.37;;;;;;;13.04;82.13;99127.38;4175990;28;21188;-86
2022/03/14 08:07:13;;;;;;;6.73;3.50;;;;;;;13.14;82.59;99131.13;4194410;28;20688;-86
2022/03/14 08:09:18;;;;;;;4.53;2.47;;;;;;;13.22;80.96;99136.72;4177084;28;20685;-86
2022/03/14 08:11:24;;;;;;;4.47;2.83;;;;;;;13.05;79.69;99136.06;4183216;28;20634;-84
2022/03/14 08:13:27;;;;;;;4.97;2.13;;;;;;;12.90;81.06;99148.34;4187998;28;20634;-83
2022/03/14 08:15:32;;;;;;;4.70;2.10;;;;;;;12.82;81.06;99145.34;4174909;28;21663;-83
2022/03/14 08:17:35;;;;;;;10.03;2.50;;;;;;;12.77;79.39;99149.97;4186654;28;21190;-83
2022/03/14 08:19:38;;;;;;;6.40;2.00;;;;;;;12.66;78.56;99159.41;4175137;28;20680;-83
2022/03/14 08:21:42;;;;;;;7.40;2.90;;;;;;;12.56;79.67;99167.91;4172689;28;20699;-84
2022/03/14 08:23:47;;;;;;;7.40;3.07;;;;;;;12.49;80.08;99167.41;4178585;28;20651;-83
2022/03/14 08:25:50;;;;;;;7.73;2.67;;;;;;;12.43;79.45;99174.78;4193617;28;20650;-83
2022/03/14 08:27:54;;;;;;;6.73;2.93;;;;;;;12.37;79.03;99167.28;4173004;28;20717;-84
2022/03/14 08:30:00;;;;;;;5.70;3.00;;;;;;;12.33;78.51;99177.09;4189370;28;20688;-86
2022/03/14 08:32:03;;;;;;;7.10;3.50;;;;;;;12.37;77.51;99169.88;4192517;28;20796;-84
2022/03/14 08:34:07;;;;;;;6.90;3.77;;;;;;;12.42;78.86;99166.09;4176637;28;20732;-87
2022/03/14 08:36:10;;;;;;;7.63;2.90;;;;;;;12.51;76.81;99175.16;4190908;28;20647;-84
2022/03/14 08:38:14;;;;;;;10.17;5.43;;;;;;;12.59;78.33;99175.56;4176139;28;21280;-84
2022/03/14 08:40:21;;;;;;;8.60;4.93;;;;;;;12.63;79.56;99180.53;4191778;28;20637;-84
2022/03/14 08:42:24;;;;;;;16.17;7.93;;;;;;;12.64;76.91;99181.38;4185631;28;21770;-84
2022/03/14 08:44:27;;;;;;;7.40;3.17;;;;;;;12.61;75.50;99179.75;4174148;28;20625;-83
2022/03/14 08:46:30;;;;;;;8.90;5.00;;;;;;;12.57;76.54;99188.75;4172287;28;20652;-82
2022/03/14 08:48:34;;;;;;;5.90;1.73;;;;;;;12.54;74.06;99195.91;4175377;28;20708;-82
2022/03/14 08:50:38;;;;;;;5.90;2.20;;;;;;;12.40;74.47;99188.03;4190420;28;20631;-81
2022/03/14 08:52:41;;;;;;;9.70;2.10;;;;;;;12.35;74.77;99195.31;4175574;28;20650;-83
2022/03/14 08:54:44;;;;;;;5.67;2.93;;;;;;;12.33;74.24;99181.50;4192666;28;20633;-82
2022/03/14 08:56:50;;;;;;;4.87;2.93;;;;;;;12.30;73.55;99185.09;4194947;28;20616;-82
2022/03/14 08:58:53;;;;;;;7.50;2.20;;;;;;;12.31;74.59;99192.03;4192112;28;20637;-82
2022/03/14 09:00:59;;;;;;;7.00;2.70;;;;;;;12.35;73.75;99190.91;4192596;28;20654;-83
2022/03/14 09:03:02;;;;;;;13.03;3.63;;;;;;;12.36;74.31;99197.00;4187420;28;20686;-84
2022/03/14 09:05:06;;;;;;;7.43;2.70;;;;;;;12.37;74.48;99193.44;4186145;28;21122;-82
2022/03/14 09:07:10;;;;;;;4.90;1.70;;;;;;;12.35;75.14;99197.94;4174470;28;20742;-83
2022/03/14 09:09:13;;;;;;;6.07;2.60;;;;;;;12.36;75.77;99194.38;4178831;28;20661;-83
2022/03/14 09:11:19;;;;;;;5.43;2.97;;;;;;;12.36;73.64;99202.25;4178866;28;20626;-82
2022/03/14 09:13:26;;;;;;;3.90;2.00;;;;;;;12.40;74.40;99195.88;4174983;28;20630;-83
2022/03/14 09:15:30;;;;;;;5.60;1.73;;;;;;;12.44;74.95;99200.84;4191860;28;20642;-83
2022/03/14 09:17:35;;;;;;;5.70;1.97;;;;;;;12.50;75.47;99213.56;4199714;28;21203;-83
2022/03/14 09:19:38;;;;;;;3.03;1.70;;;;;;;12.71;75.14;99207.09;4187899;28;20703;-84
2022/03/14 09:21:46;;;;;;;4.80;1.60;;;;;;;13.02;74.17;99205.22;4175057;28;20668;-82
2022/03/14 09:23:53;;;;;;;5.27;2.30;;;;;;;13.33;74.31;99208.47;4191375;28;20651;-82
2022/03/14 09:25:57;;;;;;;4.60;2.53;;;;;;;13.67;74.04;99211.53;4187691;28;20644;-83
2022/03/14 09:28:01;;;;;;;5.13;2.00;;;;;;;13.73;72.46;99203.28;4207852;28;20620;-82
2022/03/14 09:30:08;;;;;;;4.60;1.50;;;;;;;13.95;70.67;99201.00;4171968;28;21285;-83
2022/03/14 09:32:13;;;;;;;3.07;1.50;;;;;;;14.05;69.66;99201.28;4187265;28;21034;-82
2022/03/14 09:34:16;;;;;;;3.57;1.27;;;;;;;13.92;68.74;99195.06;4203090;28;20634;-82
2022/03/14 09:36:19;;;;;;;3.93;1.40;;;;;;;13.70;70.00;99203.47;4185034;28;20738;-82
2022/03/14 09:38:24;;;;;;;4.50;1.57;;;;;;;13.63;69.84;99209.19;4200263;28;20722;-82
2022/03/14 09:40:31;;;;;;;7.60;1.40;;;;;;;13.50;68.68;99208.28;4186481;28;20643;-82
2022/03/14 09:42:36;;;;;;;5.87;1.20;;;;;;;13.41;67.42;99214.09;4178502;28;20635;-83
2022/03/14 09:44:42;;;;;;;3.33;1.70;;;;;;;13.18;67.46;99206.81;4175283;28;21048;-82